sensor_id;sensor_type;location;lat;lon;timestamp;pressure;altitude;pressure_sealevel;temperature;humidity
60832;BME280;46665;51.558;-0.448;2023-02-19T00:01:15;101684.75;;;7.98;100.00
60832;BME280;46665;51.558;-0.448;2023-02-19T00:04:06;101691.81;;;7.99;100.00
60832;BME280;46665;51.558;-0.448;2023-02-19T00:06:50;101695.59;;;7.98;100.00
60832;BME280;46665;51.558;-0.448;2023-02-19T00:09:35;101698.41;;;8.03;100.00
60832;BME280;46665;51.558;-0.448;2023-02-19T00:12:19;101701.25;;;8.09;100.00
60832;BME280;46665;51.558;-0.448;2023-02-19T00:15:03;101703.13;;;8.08;100.00
60832;BME280;46665;51.558;-0.448;2023-02-19T00:17:47;101704.28;;;8.12;100.00
60832;BME280;46665;51.558;-0.448;2023-02-19T00:20:31;101706.78;;;8.14;100.00
60832;BME280;46665;51.558;-0.448;2023-02-19T00:23:15;101702.75;;;8.16;100.00
60832;BME280;46665;51.558;-0.448;2023-02-19T00:26:03;101701.34;;;8.14;100.00
60832;BME280;46665;51.558;-0.448;2023-02-19T00:28:49;101719.25;;;8.15;100.00
60832;BME280;46665;51.558;-0.448;2023-02-19T00:31:34;101724.69;;;8.15;100.00
60832;BME280;46665;51.558;-0.448;2023-02-19T00:34:18;101719.63;;;8.18;100.00
60832;BME280;46665;51.558;-0.448;2023-02-19T00:37:02;101720.56;;;8.12;100.00
60832;BME280;46665;51.558;-0.448;2023-02-19T00:39:47;101725.16;;;8.12;100.00
60832;BME280;46665;51.558;-0.448;2023-02-19T00:42:31;101723.97;;;8.08;100.00
60832;BME280;46665;51.558;-0.448;2023-02-19T00:45:15;101734.47;;;8.04;100.00
60832;BME280;46665;51.558;-0.448;2023-02-19T00:48:00;101744.97;;;8.00;100.00
60832;BME280;46665;51.558;-0.448;2023-02-19T00:50:44;101747.91;;;7.99;100.00
60832;BME280;46665;51.558;-0.448;2023-02-19T00:53:28;101745.31;;;7.92;100.00
60832;BME280;46665;51.558;-0.448;2023-02-19T00:56:12;101749.91;;;7.92;100.00
60832;BME280;46665;51.558;-0.448;2023-02-19T00:58:56;101753.00;;;7.84;100.00
60832;BME280;46665;51.558;-0.448;2023-02-19T01:01:40;101754.88;;;7.83;100.00
60832;BME280;46665;51.558;-0.448;2023-02-19T01:04:24;101756.66;;;7.77;100.00
60832;BME280;46665;51.558;-0.448;2023-02-19T01:07:08;101748.41;;;7.72;100.00
60832;BME280;46665;51.558;-0.448;2023-02-19T01:09:52;101754.53;;;7.68;100.00
60832;BME280;46665;51.558;-0.448;2023-02-19T01:12:36;101766.88;;;7.64;100.00
60832;BME280;46665;51.558;-0.448;2023-02-19T01:15:20;101757.34;;;7.61;100.00
60832;BME280;46665;51.558;-0.448;2023-02-19T01:18:04;101760.63;;;7.63;100.00
60832;BME280;46665;51.558;-0.448;2023-02-19T01:20:48;101767.34;;;7.60;100.00
60832;BME280;46665;51.558;-0.448;2023-02-19T01:23:33;101765.13;;;7.57;100.00
60832;BME280;46665;51.558;-0.448;2023-02-19T01:26:19;101763.91;;;7.53;100.00
60832;BME280;46665;51.558;-0.448;2023-02-19T01:29:04;101763.78;;;7.48;100.00
60832;BME280;46665;51.558;-0.448;2023-02-19T01:31:47;101764.50;;;7.44;100.00
60832;BME280;46665;51.558;-0.448;2023-02-19T01:34:31;101761.78;;;7.44;100.00
60832;BME280;46665;51.558;-0.448;2023-02-19T01:37:16;101763.88;;;7.42;100.00
60832;BME280;46665;51.558;-0.448;2023-02-19T01:40:00;101774.97;;;7.40;100.00
60832;BME280;46665;51.558;-0.448;2023-02-19T01:42:44;101781.69;;;7.37;100.00
60832;BME280;46665;51.558;-0.448;2023-02-19T01:45:30;101778.25;;;7.30;100.00
60832;BME280;46665;51.558;-0.448;2023-02-19T01:48:26;101781.78;;;7.31;100.00
60832;BME280;46665;51.558;-0.448;2023-02-19T01:51:16;101778.94;;;7.26;100.00
60832;BME280;46665;51.558;-0.448;2023-02-19T01:54:03;101791.03;;;7.23;100.00
60832;BME280;46665;51.558;-0.448;2023-02-19T01:56:50;101797.63;;;7.15;100.00
60832;BME280;46665;51.558;-0.448;2023-02-19T01:59:34;101789.91;;;7.01;100.00
60832;BME280;46665;51.558;-0.448;2023-02-19T02:02:20;101780.53;;;6.85;100.00
60832;BME280;46665;51.558;-0.448;2023-02-19T02:05:10;101773.78;;;6.76;100.00
60832;BME280;46665;51.558;-0.448;2023-02-19T02:08:01;101776.34;;;6.70;100.00
60832;BME280;46665;51.558;-0.448;2023-02-19T02:11:04;101784.72;;;6.69;100.00
60832;BME280;46665;51.558;-0.448;2023-02-19T02:13:48;101793.25;;;6.66;100.00
60832;BME280;46665;51.558;-0.448;2023-02-19T02:22:37;101804.38;;;6.58;100.00
60832;BME280;46665;51.558;-0.448;2023-02-19T02:31:58;101807.56;;;6.36;100.00
60832;BME280;46665;51.558;-0.448;2023-02-19T02:34:56;101818.38;;;6.36;100.00
60832;BME280;46665;51.558;-0.448;2023-02-19T02:37:43;101822.94;;;6.36;100.00
60832;BME280;46665;51.558;-0.448;2023-02-19T02:40:28;101820.91;;;6.31;100.00
60832;BME280;46665;51.558;-0.448;2023-02-19T02:43:12;101829.09;;;6.24;100.00
60832;BME280;46665;51.558;-0.448;2023-02-19T02:45:56;101823.34;;;6.14;100.00
60832;BME280;46665;51.558;-0.448;2023-02-19T02:48:44;101827.19;;;6.06;100.00
60832;BME280;46665;51.558;-0.448;2023-02-19T02:51:34;101826.56;;;6.04;100.00
60832;BME280;46665;51.558;-0.448;2023-02-19T02:54:24;101830.38;;;5.97;100.00
60832;BME280;46665;51.558;-0.448;2023-02-19T02:57:27;101822.50;;;5.95;100.00
60832;BME280;46665;51.558;-0.448;2023-02-19T03:00:13;101828.53;;;5.91;100.00
60832;BME280;46665;51.558;-0.448;2023-02-19T03:02:57;101818.13;;;5.94;100.00
60832;BME280;46665;51.558;-0.448;2023-02-19T03:05:42;101819.28;;;6.05;100.00
60832;BME280;46665;51.558;-0.448;2023-02-19T03:08:46;101827.28;;;6.18;100.00
60832;BME280;46665;51.558;-0.448;2023-02-19T03:11:33;101825.88;;;6.34;100.00
60832;BME280;46665;51.558;-0.448;2023-02-19T03:14:44;101825.50;;;6.49;100.00
60832;BME280;46665;51.558;-0.448;2023-02-19T03:17:52;101810.25;;;6.55;100.00
60832;BME280;46665;51.558;-0.448;2023-02-19T03:20:57;101822.66;;;6.62;100.00
60832;BME280;46665;51.558;-0.448;2023-02-19T03:23:43;101833.63;;;6.67;100.00
60832;BME280;46665;51.558;-0.448;2023-02-19T03:26:47;101837.53;;;6.71;100.00
60832;BME280;46665;51.558;-0.448;2023-02-19T03:29:38;101830.59;;;6.76;100.00
60832;BME280;46665;51.558;-0.448;2023-02-19T03:32:29;101839.31;;;6.78;100.00
60832;BME280;46665;51.558;-0.448;2023-02-19T03:35:20;101846.63;;;6.77;100.00
60832;BME280;46665;51.558;-0.448;2023-02-19T03:38:21;101864.06;;;6.81;100.00
60832;BME280;46665;51.558;-0.448;2023-02-19T03:41:09;101862.16;;;6.82;100.00
60832;BME280;46665;51.558;-0.448;2023-02-19T03:53:09;101876.38;;;6.59;100.00
60832;BME280;46665;51.558;-0.448;2023-02-19T03:56:06;101885.75;;;6.56;100.00
60832;BME280;46665;51.558;-0.448;2023-02-19T04:01:47;101878.69;;;6.55;100.00
60832;BME280;46665;51.558;-0.448;2023-02-19T04:04:37;101886.72;;;6.62;100.00
60832;BME280;46665;51.558;-0.448;2023-02-19T04:07:21;101885.81;;;6.68;100.00
60832;BME280;46665;51.558;-0.448;2023-02-19T04:10:07;101891.19;;;6.75;100.00
60832;BME280;46665;51.558;-0.448;2023-02-19T04:12:56;101893.22;;;6.79;100.00
60832;BME280;46665;51.558;-0.448;2023-02-19T04:15:43;101895.81;;;6.86;100.00
60832;BME280;46665;51.558;-0.448;2023-02-19T04:18:31;101905.75;;;6.92;100.00
60832;BME280;46665;51.558;-0.448;2023-02-19T04:21:18;101919.91;;;6.94;100.00
60832;BME280;46665;51.558;-0.448;2023-02-19T04:24:09;101917.09;;;7.01;100.00
60832;BME280;46665;51.558;-0.448;2023-02-19T04:26:54;101932.66;;;7.05;100.00
60832;BME280;46665;51.558;-0.448;2023-02-19T04:29:39;101922.81;;;7.11;100.00
60832;BME280;46665;51.558;-0.448;2023-02-19T04:32:23;101925.28;;;7.12;100.00
60832;BME280;46665;51.558;-0.448;2023-02-19T04:35:08;101928.16;;;7.18;100.00
60832;BME280;46665;51.558;-0.448;2023-02-19T04:37:52;101928.28;;;7.23;100.00
60832;BME280;46665;51.558;-0.448;2023-02-19T04:40:36;101929.72;;;7.25;100.00
60832;BME280;46665;51.558;-0.448;2023-02-19T04:43:20;101937.78;;;7.32;100.00
60832;BME280;46665;51.558;-0.448;2023-02-19T04:46:04;101949.44;;;7.32;100.00
60832;BME280;46665;51.558;-0.448;2023-02-19T04:48:48;101933.06;;;7.39;100.00
60832;BME280;46665;51.558;-0.448;2023-02-19T04:51:32;101933.06;;;7.39;100.00
60832;BME280;46665;51.558;-0.448;2023-02-19T04:54:15;101934.75;;;7.40;100.00
60832;BME280;46665;51.558;-0.448;2023-02-19T04:56:59;101935.56;;;7.41;100.00
60832;BME280;46665;51.558;-0.448;2023-02-19T04:59:45;101950.19;;;7.40;100.00
60832;BME280;46665;51.558;-0.448;2023-02-19T05:02:29;101963.47;;;7.41;100.00
60832;BME280;46665;51.558;-0.448;2023-02-19T05:05:13;101954.53;;;7.41;100.00
60832;BME280;46665;51.558;-0.448;2023-02-19T05:07:57;101969.13;;;7.40;100.00
60832;BME280;46665;51.558;-0.448;2023-02-19T05:10:40;101951.47;;;7.37;100.00
60832;BME280;46665;51.558;-0.448;2023-02-19T05:13:25;101971.69;;;7.34;100.00
60832;BME280;46665;51.558;-0.448;2023-02-19T05:16:11;101986.06;;;7.35;100.00
60832;BME280;46665;51.558;-0.448;2023-02-19T05:18:58;101985.22;;;7.34;100.00
60832;BME280;46665;51.558;-0.448;2023-02-19T05:21:42;101986.88;;;7.35;100.00
60832;BME280;46665;51.558;-0.448;2023-02-19T05:24:26;101996.06;;;7.34;100.00
60832;BME280;46665;51.558;-0.448;2023-02-19T05:27:11;101990.41;;;7.36;100.00
60832;BME280;46665;51.558;-0.448;2023-02-19T05:29:55;101986.88;;;7.35;100.00
60832;BME280;46665;51.558;-0.448;2023-02-19T05:32:39;101985.66;;;7.31;100.00
60832;BME280;46665;51.558;-0.448;2023-02-19T05:35:23;101975.69;;;7.32;100.00
60832;BME280;46665;51.558;-0.448;2023-02-19T05:38:07;101981.09;;;7.32;100.00
60832;BME280;46665;51.558;-0.448;2023-02-19T05:40:50;101982.13;;;7.31;100.00
60832;BME280;46665;51.558;-0.448;2023-02-19T05:43:35;101982.81;;;7.26;100.00
60832;BME280;46665;51.558;-0.448;2023-02-19T05:46:22;101985.00;;;7.18;100.00
60832;BME280;46665;51.558;-0.448;2023-02-19T05:49:06;101994.00;;;7.11;100.00
60832;BME280;46665;51.558;-0.448;2023-02-19T05:51:50;101985.97;;;7.05;100.00
60832;BME280;46665;51.558;-0.448;2023-02-19T05:54:34;101983.94;;;7.00;100.00
60832;BME280;46665;51.558;-0.448;2023-02-19T05:57:18;101979.28;;;6.89;100.00
60832;BME280;46665;51.558;-0.448;2023-02-19T06:00:04;101990.97;;;6.83;100.00
60832;BME280;46665;51.558;-0.448;2023-02-19T06:02:48;102000.16;;;6.82;100.00
60832;BME280;46665;51.558;-0.448;2023-02-19T06:05:32;101980.44;;;6.75;100.00
60832;BME280;46665;51.558;-0.448;2023-02-19T06:08:16;101989.63;;;6.73;100.00
60832;BME280;46665;51.558;-0.448;2023-02-19T06:11:00;102000.09;;;6.63;100.00
60832;BME280;46665;51.558;-0.448;2023-02-19T06:13:44;102012.53;;;6.71;100.00
60832;BME280;46665;51.558;-0.448;2023-02-19T06:16:29;102003.00;;;6.68;100.00
60832;BME280;46665;51.558;-0.448;2023-02-19T06:19:16;102007.78;;;6.66;100.00
60832;BME280;46665;51.558;-0.448;2023-02-19T06:21:59;102005.75;;;6.62;100.00
60832;BME280;46665;51.558;-0.448;2023-02-19T06:24:43;102010.09;;;6.63;100.00
60832;BME280;46665;51.558;-0.448;2023-02-19T06:27:27;102012.03;;;6.56;100.00
60832;BME280;46665;51.558;-0.448;2023-02-19T06:30:12;102014.97;;;6.54;100.00
60832;BME280;46665;51.558;-0.448;2023-02-19T06:32:56;102023.28;;;6.53;100.00
60832;BME280;46665;51.558;-0.448;2023-02-19T06:35:40;102031.63;;;6.51;100.00
60832;BME280;46665;51.558;-0.448;2023-02-19T06:38:24;102031.63;;;6.51;100.00
60832;BME280;46665;51.558;-0.448;2023-02-19T06:41:11;102030.38;;;6.54;100.00
60832;BME280;46665;51.558;-0.448;2023-02-19T06:43:56;102028.75;;;6.46;100.00
60832;BME280;46665;51.558;-0.448;2023-02-19T06:46:40;102032.75;;;6.43;100.00
60832;BME280;46665;51.558;-0.448;2023-02-19T06:49:24;102034.00;;;6.41;100.00
60832;BME280;46665;51.558;-0.448;2023-02-19T06:52:08;102031.94;;;6.36;100.00
60832;BME280;46665;51.558;-0.448;2023-02-19T06:54:52;102033.59;;;6.37;100.00
60832;BME280;46665;51.558;-0.448;2023-02-19T06:57:37;102032.41;;;6.33;100.00
60832;BME280;46665;51.558;-0.448;2023-02-19T07:00:20;102039.88;;;6.31;100.00
60832;BME280;46665;51.558;-0.448;2023-02-19T07:03:04;102051.53;;;6.32;100.00
60832;BME280;46665;51.558;-0.448;2023-02-19T07:05:48;102051.09;;;6.35;100.00
60832;BME280;46665;51.558;-0.448;2023-02-19T07:08:33;102045.47;;;6.36;100.00
60832;BME280;46665;51.558;-0.448;2023-02-19T07:11:17;102063.78;;;6.34;100.00
60832;BME280;46665;51.558;-0.448;2023-02-19T07:14:03;102062.13;;;6.33;100.00
60832;BME280;46665;51.558;-0.448;2023-02-19T07:16:47;102060.25;;;6.34;100.00
60832;BME280;46665;51.558;-0.448;2023-02-19T07:19:32;102070.81;;;6.35;100.00
60832;BME280;46665;51.558;-0.448;2023-02-19T07:22:16;102089.34;;;6.38;100.00
60832;BME280;46665;51.558;-0.448;2023-02-19T07:25:00;102093.25;;;6.42;100.00
60832;BME280;46665;51.558;-0.448;2023-02-19T07:27:44;102100.09;;;6.45;100.00
60832;BME280;46665;51.558;-0.448;2023-02-19T07:30:28;102101.78;;;6.46;100.00
60832;BME280;46665;51.558;-0.448;2023-02-19T07:33:12;102110.25;;;6.49;100.00
60832;BME280;46665;51.558;-0.448;2023-02-19T07:35:56;102104.66;;;6.51;100.00
60832;BME280;46665;51.558;-0.448;2023-02-19T07:38:40;102115.22;;;6.53;100.00
60832;BME280;46665;51.558;-0.448;2023-02-19T07:41:25;102110.88;;;6.51;100.00
60832;BME280;46665;51.558;-0.448;2023-02-19T07:44:09;102121.47;;;6.53;100.00
60832;BME280;46665;51.558;-0.448;2023-02-19T07:46:56;102130.44;;;6.54;100.00
60832;BME280;46665;51.558;-0.448;2023-02-19T07:49:40;102129.81;;;6.51;100.00
60832;BME280;46665;51.558;-0.448;2023-02-19T07:52:24;102126.28;;;6.51;100.00
60832;BME280;46665;51.558;-0.448;2023-02-19T07:55:08;102141.84;;;6.56;100.00
60832;BME280;46665;51.558;-0.448;2023-02-19T07:57:51;102129.75;;;6.58;100.00
60832;BME280;46665;51.558;-0.448;2023-02-19T08:00:35;102144.34;;;6.57;100.00
60832;BME280;46665;51.558;-0.448;2023-02-19T08:03:19;102146.66;;;6.54;100.00
60832;BME280;46665;51.558;-0.448;2023-02-19T08:06:04;102147.69;;;6.53;100.00
60832;BME280;46665;51.558;-0.448;2023-02-19T08:08:48;102149.78;;;6.50;100.00
60832;BME280;46665;51.558;-0.448;2023-02-19T08:11:32;102145.81;;;6.53;100.00
60832;BME280;46665;51.558;-0.448;2023-02-19T08:14:35;102158.50;;;6.53;100.00
60832;BME280;46665;51.558;-0.448;2023-02-19T08:17:19;102177.00;;;6.56;100.00
60832;BME280;46665;51.558;-0.448;2023-02-19T08:20:03;102187.81;;;6.56;100.00
60832;BME280;46665;51.558;-0.448;2023-02-19T08:22:47;102193.66;;;6.53;100.00
60832;BME280;46665;51.558;-0.448;2023-02-19T08:25:32;102211.94;;;6.57;100.00
60832;BME280;46665;51.558;-0.448;2023-02-19T08:28:16;102230.44;;;6.60;100.00
60832;BME280;46665;51.558;-0.448;2023-02-19T08:31:03;102228.97;;;6.64;100.00
60832;BME280;46665;51.558;-0.448;2023-02-19T08:33:47;102226.47;;;6.69;100.00
60832;BME280;46665;51.558;-0.448;2023-02-19T08:36:31;102223.94;;;6.75;100.00
60832;BME280;46665;51.558;-0.448;2023-02-19T08:39:15;102220.97;;;6.83;100.00
60832;BME280;46665;51.558;-0.448;2023-02-19T08:41:59;102217.16;;;6.90;100.00
60832;BME280;46665;51.558;-0.448;2023-02-19T08:44:43;102217.97;;;6.98;100.00
60832;BME280;46665;51.558;-0.448;2023-02-19T08:47:27;102207.50;;;7.01;100.00
60832;BME280;46665;51.558;-0.448;2023-02-19T08:50:11;102208.31;;;7.08;100.00
60832;BME280;46665;51.558;-0.448;2023-02-19T08:52:58;102206.00;;;7.12;100.00
60832;BME280;46665;51.558;-0.448;2023-02-19T08:55:42;102227.81;;;7.17;100.00
60832;BME280;46665;51.558;-0.448;2023-02-19T08:58:26;102214.06;;;7.19;100.00
60832;BME280;46665;51.558;-0.448;2023-02-19T09:01:13;102204.91;;;7.20;100.00
60832;BME280;46665;51.558;-0.448;2023-02-19T09:03:57;102216.06;;;7.30;100.00
60832;BME280;46665;51.558;-0.448;2023-02-19T09:06:41;102218.13;;;7.34;100.00
60832;BME280;46665;51.558;-0.448;2023-02-19T09:09:25;102212.63;;;7.41;100.00
60832;BME280;46665;51.558;-0.448;2023-02-19T09:12:11;102213.84;;;7.45;100.00
60832;BME280;46665;51.558;-0.448;2023-02-19T09:14:55;102209.06;;;7.47;100.00
60832;BME280;46665;51.558;-0.448;2023-02-19T09:17:39;102210.03;;;7.53;100.00
60832;BME280;46665;51.558;-0.448;2023-02-19T09:20:23;102209.59;;;7.56;100.00
60832;BME280;46665;51.558;-0.448;2023-02-19T09:23:07;102209.38;;;7.57;100.00
60832;BME280;46665;51.558;-0.448;2023-02-19T09:25:59;102237.91;;;7.60;100.00
60832;BME280;46665;51.558;-0.448;2023-02-19T09:28:43;102235.78;;;7.62;100.00
60832;BME280;46665;51.558;-0.448;2023-02-19T09:31:27;102247.47;;;7.63;100.00
60832;BME280;46665;51.558;-0.448;2023-02-19T09:34:11;102258.47;;;7.68;100.00
60832;BME280;46665;51.558;-0.448;2023-02-19T09:36:55;102253.19;;;7.73;100.00
60832;BME280;46665;51.558;-0.448;2023-02-19T09:39:39;102264.81;;;7.80;100.00
60832;BME280;46665;51.558;-0.448;2023-02-19T09:42:26;102270.81;;;7.82;100.00
60832;BME280;46665;51.558;-0.448;2023-02-19T09:45:18;102277.91;;;7.83;100.00
60832;BME280;46665;51.558;-0.448;2023-02-19T09:48:04;102287.84;;;7.89;98.39
60832;BME280;46665;51.558;-0.448;2023-02-19T09:50:49;102293.88;;;7.91;98.31
60832;BME280;46665;51.558;-0.448;2023-02-19T09:53:39;102302.63;;;7.93;97.45
60832;BME280;46665;51.558;-0.448;2023-02-19T09:56:25;102306.16;;;7.94;95.53
60832;BME280;46665;51.558;-0.448;2023-02-19T09:59:21;102300.53;;;7.95;93.32
60832;BME280;46665;51.558;-0.448;2023-02-19T10:02:17;102290.09;;;7.92;93.16
60832;BME280;46665;51.558;-0.448;2023-02-19T10:05:08;102293.88;;;7.91;94.32
60832;BME280;46665;51.558;-0.448;2023-02-19T10:07:55;102288.78;;;8.01;94.12
60832;BME280;46665;51.558;-0.448;2023-02-19T10:10:42;102294.56;;;8.05;92.32
60832;BME280;46665;51.558;-0.448;2023-02-19T10:16:18;102276.34;;;8.12;92.25
60832;BME280;46665;51.558;-0.448;2023-02-19T10:19:03;102292.34;;;8.20;91.50
60832;BME280;46665;51.558;-0.448;2023-02-19T10:21:48;102304.19;;;8.26;88.90
60832;BME280;46665;51.558;-0.448;2023-02-19T10:24:31;102319.94;;;8.36;87.55
60832;BME280;46665;51.558;-0.448;2023-02-19T10:27:15;102319.47;;;8.39;86.84
60832;BME280;46665;51.558;-0.448;2023-02-19T10:30:00;102307.53;;;8.46;86.72
60832;BME280;46665;51.558;-0.448;2023-02-19T10:33:18;102310.91;;;8.60;88.05
60832;BME280;46665;51.558;-0.448;2023-02-19T10:36:04;102306.78;;;8.76;84.52
60832;BME280;46665;51.558;-0.448;2023-02-19T10:38:49;102302.06;;;8.83;83.08
60832;BME280;46665;51.558;-0.448;2023-02-19T10:41:39;102311.09;;;8.96;84.12
60832;BME280;46665;51.558;-0.448;2023-02-19T10:44:26;102314.31;;;9.04;83.84
60832;BME280;46665;51.558;-0.448;2023-02-19T10:47:19;102312.44;;;9.05;81.77
60832;BME280;46665;51.558;-0.448;2023-02-19T10:50:04;102317.66;;;9.06;80.34
60832;BME280;46665;51.558;-0.448;2023-02-19T10:52:54;102324.25;;;9.10;78.64
60832;BME280;46665;51.558;-0.448;2023-02-19T10:55:39;102326.00;;;9.05;78.58
60832;BME280;46665;51.558;-0.448;2023-02-19T10:58:24;102326.09;;;8.98;77.95
60832;BME280;46665;51.558;-0.448;2023-02-19T11:04:16;102324.72;;;9.07;78.86
60832;BME280;46665;51.558;-0.448;2023-02-19T11:09:52;102337.63;;;9.12;77.13
60832;BME280;46665;51.558;-0.448;2023-02-19T11:12:36;102343.06;;;9.12;75.22
60832;BME280;46665;51.558;-0.448;2023-02-19T11:15:31;102344.00;;;9.18;74.83
60832;BME280;46665;51.558;-0.448;2023-02-19T11:18:28;102332.31;;;9.17;75.58
60832;BME280;46665;51.558;-0.448;2023-02-19T11:21:32;102330.44;;;9.18;75.79
60832;BME280;46665;51.558;-0.448;2023-02-19T11:24:27;102343.94;;;9.24;77.15
60832;BME280;46665;51.558;-0.448;2023-02-19T11:27:17;102355.75;;;9.30;76.16
60832;BME280;46665;51.558;-0.448;2023-02-19T11:30:30;102364.94;;;9.29;76.13
60832;BME280;46665;51.558;-0.448;2023-02-19T11:45:02;102355.81;;;9.53;77.56
60832;BME280;46665;51.558;-0.448;2023-02-19T11:50:51;102330.81;;;9.75;77.16
60832;BME280;46665;51.558;-0.448;2023-02-19T11:53:45;102328.59;;;9.95;77.53
60832;BME280;46665;51.558;-0.448;2023-02-19T11:56:35;102342.66;;;10.16;76.96
60832;BME280;46665;51.558;-0.448;2023-02-19T11:59:32;102335.34;;;10.16;75.55
60832;BME280;46665;51.558;-0.448;2023-02-19T12:02:41;102338.41;;;10.20;75.67
60832;BME280;46665;51.558;-0.448;2023-02-19T12:11:56;102315.31;;;10.23;76.38
60832;BME280;46665;51.558;-0.448;2023-02-19T12:33:49;102273.44;;;10.47;76.33
60832;BME280;46665;51.558;-0.448;2023-02-19T12:45:00;102279.59;;;10.43;75.71
60832;BME280;46665;51.558;-0.448;2023-02-19T12:50:43;102276.97;;;10.59;77.30
60832;BME280;46665;51.558;-0.448;2023-02-19T12:56:17;102261.94;;;10.57;77.09
60832;BME280;46665;51.558;-0.448;2023-02-19T13:02:53;102265.00;;;10.60;77.16
60832;BME280;46665;51.558;-0.448;2023-02-19T13:05:48;102264.78;;;10.62;77.75
60832;BME280;46665;51.558;-0.448;2023-02-19T13:08:38;102267.38;;;10.69;78.33
60832;BME280;46665;51.558;-0.448;2023-02-19T13:11:28;102254.66;;;10.74;77.53
60832;BME280;46665;51.558;-0.448;2023-02-19T13:14:29;102258.91;;;10.82;76.69
60832;BME280;46665;51.558;-0.448;2023-02-19T13:17:40;102254.38;;;10.88;76.30
60832;BME280;46665;51.558;-0.448;2023-02-19T13:20:35;102245.38;;;10.87;77.80
60832;BME280;46665;51.558;-0.448;2023-02-19T13:23:35;102235.81;;;10.84;77.41
60832;BME280;46665;51.558;-0.448;2023-02-19T13:33:04;102247.31;;;10.75;79.85
60832;BME280;46665;51.558;-0.448;2023-02-19T13:36:31;102236.63;;;10.85;79.70
60832;BME280;46665;51.558;-0.448;2023-02-19T13:39:15;102238.94;;;10.93;78.99
60832;BME280;46665;51.558;-0.448;2023-02-19T13:42:00;102239.72;;;11.05;78.25
60832;BME280;46665;51.558;-0.448;2023-02-19T13:44:46;102236.13;;;11.17;77.62
60832;BME280;46665;51.558;-0.448;2023-02-19T13:50:32;102254.88;;;11.47;77.17
60832;BME280;46665;51.558;-0.448;2023-02-19T14:04:57;102224.81;;;11.25;77.58
60832;BME280;46665;51.558;-0.448;2023-02-19T14:07:50;102239.47;;;11.24;78.53
60832;BME280;46665;51.558;-0.448;2023-02-19T14:10:54;102231.06;;;11.25;78.16
60832;BME280;46665;51.558;-0.448;2023-02-19T14:16:49;102222.25;;;11.35;76.67
60832;BME280;46665;51.558;-0.448;2023-02-19T14:31:30;102208.50;;;11.64;73.76
60832;BME280;46665;51.558;-0.448;2023-02-19T14:34:21;102217.84;;;11.68;73.91
60832;BME280;46665;51.558;-0.448;2023-02-19T14:37:16;102215.13;;;11.68;74.43
60832;BME280;46665;51.558;-0.448;2023-02-19T14:40:02;102214.84;;;11.69;72.79
60832;BME280;46665;51.558;-0.448;2023-02-19T14:42:47;102218.50;;;11.75;72.44
60832;BME280;46665;51.558;-0.448;2023-02-19T14:45:38;102223.94;;;11.75;71.84
60832;BME280;46665;51.558;-0.448;2023-02-19T14:48:33;102233.19;;;11.74;72.75
60832;BME280;46665;51.558;-0.448;2023-02-19T14:51:32;102209.00;;;11.78;72.53
60832;BME280;46665;51.558;-0.448;2023-02-19T14:54:26;102214.75;;;11.81;73.08
60832;BME280;46665;51.558;-0.448;2023-02-19T14:57:23;102213.94;;;11.81;72.92
60832;BME280;46665;51.558;-0.448;2023-02-19T15:03:20;102207.50;;;11.87;72.74
60832;BME280;46665;51.558;-0.448;2023-02-19T15:06:16;102205.00;;;11.85;73.06
60832;BME280;46665;51.558;-0.448;2023-02-19T15:09:05;102198.25;;;11.88;73.17
60832;BME280;46665;51.558;-0.448;2023-02-19T15:11:50;102191.72;;;11.89;72.90
60832;BME280;46665;51.558;-0.448;2023-02-19T15:14:34;102202.84;;;11.87;72.41
60832;BME280;46665;51.558;-0.448;2023-02-19T15:17:38;102192.53;;;11.89;72.70
60832;BME280;46665;51.558;-0.448;2023-02-19T15:20:26;102181.28;;;11.86;73.35
60832;BME280;46665;51.558;-0.448;2023-02-19T15:23:17;102180.56;;;11.90;74.35
60832;BME280;46665;51.558;-0.448;2023-02-19T15:26:03;102189.56;;;11.91;73.68
60832;BME280;46665;51.558;-0.448;2023-02-19T15:29:02;102191.78;;;11.94;71.92
60832;BME280;46665;51.558;-0.448;2023-02-19T15:31:58;102186.25;;;11.89;71.93
60832;BME280;46665;51.558;-0.448;2023-02-19T15:34:52;102183.75;;;11.87;70.84
60832;BME280;46665;51.558;-0.448;2023-02-19T15:37:36;102184.25;;;11.84;69.62
60832;BME280;46665;51.558;-0.448;2023-02-19T15:40:25;102172.28;;;11.85;70.25
60832;BME280;46665;51.558;-0.448;2023-02-19T15:43:24;102159.38;;;11.81;69.36
60832;BME280;46665;51.558;-0.448;2023-02-19T15:46:17;102145.09;;;11.74;70.35
60832;BME280;46665;51.558;-0.448;2023-02-19T15:49:08;102152.53;;;11.78;70.52
60832;BME280;46665;51.558;-0.448;2023-02-19T15:52:05;102144.28;;;11.73;70.07
60832;BME280;46665;51.558;-0.448;2023-02-19T15:54:56;102139.91;;;11.72;71.19
60832;BME280;46665;51.558;-0.448;2023-02-19T15:57:48;102145.63;;;11.70;71.46
60832;BME280;46665;51.558;-0.448;2023-02-19T16:01:10;102133.31;;;11.68;72.31
60832;BME280;46665;51.558;-0.448;2023-02-19T16:03:56;102141.50;;;11.68;73.18
60832;BME280;46665;51.558;-0.448;2023-02-19T16:06:54;102149.34;;;11.64;73.63
60832;BME280;46665;51.558;-0.448;2023-02-19T16:09:38;102137.88;;;11.62;73.94
60832;BME280;46665;51.558;-0.448;2023-02-19T16:12:23;102123.84;;;11.54;75.10
60832;BME280;46665;51.558;-0.448;2023-02-19T16:15:12;102119.53;;;11.58;75.07
60832;BME280;46665;51.558;-0.448;2023-02-19T16:17:57;102119.78;;;11.56;75.02
60832;BME280;46665;51.558;-0.448;2023-02-19T16:20:45;102109.91;;;11.50;75.67
60832;BME280;46665;51.558;-0.448;2023-02-19T16:23:30;102116.41;;;11.49;76.67
60832;BME280;46665;51.558;-0.448;2023-02-19T16:26:15;102115.53;;;11.43;77.10
60832;BME280;46665;51.558;-0.448;2023-02-19T16:29:00;102124.50;;;11.44;75.94
60832;BME280;46665;51.558;-0.448;2023-02-19T16:31:55;102109.25;;;11.43;75.45
60832;BME280;46665;51.558;-0.448;2023-02-19T16:34:45;102107.84;;;11.40;75.15
60832;BME280;46665;51.558;-0.448;2023-02-19T16:37:39;102108.34;;;11.37;75.45